Time;durP1;ratioP1;P1;durP2;ratioP2;P2;SDS_P1;SDS_P2;PMS_P1;PMS_P2;Temp;Humidity;BMP_temperature;BMP_pressure;BME280_temperature;BME280_humidity;BME280_pressure;Samples;Min_cycle;Max_cycle;Signal;HPM_P1;HPM_P2
2022/02/19 00:00:55;;;;;;;;;;;;;;;19.48;34.60;100659.84;7281280;19;153989;-51
2022/02/19 00:03:22;;;;;;;;;;;;;;;19.52;34.79;100668.47;7282604;19;153714;-51
2022/02/19 00:05:49;;;;;;;;;;;;;;;19.55;34.45;100676.25;7284636;19;151943;-50
2022/02/19 00:08:16;;;;;;;;;;;;;;;19.60;34.40;100680.94;7284315;19;152862;-50
2022/02/19 00:10:43;;;;;;;;;;;;;;;19.63;34.74;100675.53;7283274;19;153726;-51
2022/02/19 00:13:10;;;;;;;;;;;;;;;19.68;34.16;100683.84;7282404;19;151828;-51
2022/02/19 00:15:37;;;;;;;;;;;;;;;19.71;34.25;100683.25;7289436;19;155305;-51
2022/02/19 00:18:04;;;;;;;;;;;;;;;19.75;34.53;100706.72;7283039;19;151827;-51
2022/02/19 00:20:32;;;;;;;;;;;;;;;19.79;34.31;100710.56;7284474;19;153797;-50
2022/02/19 00:22:59;;;;;;;;;;;;;;;19.84;34.57;100704.84;7282133;19;153696;-51
2022/02/19 00:25:26;;;;;;;;;;;;;;;19.87;34.18;100711.81;7284292;19;152056;-51
2022/02/19 00:27:54;;;;;;;;;;;;;;;19.92;34.12;100720.13;7281888;19;152936;-51
2022/02/19 00:30:21;;;;;;;;;;;;;;;19.95;34.22;100709.09;7283121;19;153435;-50
2022/02/19 00:32:48;;;;;;;;;;;;;;;19.99;34.17;100724.16;7284071;19;151870;-51
2022/02/19 00:35:15;;;;;;;;;;;;;;;20.05;33.72;100726.88;7282143;19;154936;-51
2022/02/19 00:37:42;;;;;;;;;;;;;;;20.09;34.01;100742.78;7290383;19;153494;-52
2022/02/19 00:40:10;;;;;;;;;;;;;;;20.12;33.87;100747.78;7284495;19;152866;-52
2022/02/19 00:42:39;;;;;;;;;;;;;;;20.17;33.56;100760.88;7282020;19;153455;-52
2022/02/19 00:45:06;;;;;;;;;;;;;;;20.18;34.38;100748.50;7282129;19;151737;-52
2022/02/19 00:47:33;;;;;;;;;;;;;;;20.23;34.26;100768.88;7283943;19;153377;-52
2022/02/19 00:50:00;;;;;;;;;;;;;;;20.25;33.84;100765.75;7283036;19;151982;-53
2022/02/19 00:52:27;;;;;;;;;;;;;;;20.26;34.56;100776.66;7281603;19;152066;-52
2022/02/19 00:54:54;;;;;;;;;;;;;;;20.31;34.85;100768.16;7279280;19;152875;-52
2022/02/19 00:57:21;;;;;;;;;;;;;;;20.32;35.08;100778.25;7281993;19;152928;-51
2022/02/19 00:59:47;;;;;;;;;;;;;;;20.38;35.03;100770.56;7291094;19;151936;-51
2022/02/19 01:02:14;;;;;;;;;;;;;;;20.40;35.46;100763.50;7282020;19;153895;-52
2022/02/19 01:04:41;;;;;;;;;;;;;;;20.45;34.70;100781.34;7284110;19;152563;-51
2022/02/19 01:07:09;;;;;;;;;;;;;;;19.82;30.04;100794.03;7283925;19;155026;-53
2022/02/19 01:09:35;;;;;;;;;;;;;;;20.00;32.00;100783.88;7278941;19;156671;-51
2022/02/19 01:12:02;;;;;;;;;;;;;;;20.09;32.71;100795.22;7279567;19;152251;-51
2022/02/19 01:14:29;;;;;;;;;;;;;;;20.10;32.46;100796.91;7279995;19;153080;-50
2022/02/19 01:16:56;;;;;;;;;;;;;;;20.12;32.88;100797.44;7276683;19;154063;-50
2022/02/19 01:19:23;;;;;;;;;;;;;;;20.14;32.73;100803.56;7280585;19;152128;-50
2022/02/19 01:21:49;;;;;;;;;;;;;;;20.16;33.23;100807.72;7285682;19;153475;-51
2022/02/19 01:24:16;;;;;;;;;;;;;;;20.14;33.05;100803.56;7285178;19;152481;-50
2022/02/19 01:26:43;;;;;;;;;;;;;;;20.13;32.91;100813.09;7283815;19;151951;-50
2022/02/19 01:29:10;;;;;;;;;;;;;;;20.13;33.40;100815.91;7282693;19;153860;-50
2022/02/19 01:31:36;;;;;;;;;;;;;;;20.12;32.95;100805.84;7284884;19;151745;-51
2022/02/19 01:34:03;;;;;;;;;;;;;;;20.15;33.17;100813.63;7280503;19;152927;-50
2022/02/19 01:36:30;;;;;;;;;;;;;;;20.12;33.38;100805.84;7282267;19;155929;-50
2022/02/19 01:38:57;;;;;;;;;;;;;;;20.10;32.88;100808.94;7285334;19;152011;-51
2022/02/19 01:41:24;;;;;;;;;;;;;;;20.10;33.08;100813.72;7285400;19;153148;-50
2022/02/19 01:43:51;;;;;;;;;;;;;;;20.07;33.08;100805.94;7290798;19;151976;-51
2022/02/19 01:46:17;;;;;;;;;;;;;;;20.10;32.80;100819.34;7284996;19;152705;-53
2022/02/19 01:48:44;;;;;;;;;;;;;;;20.08;33.41;100825.25;7280825;19;153866;-50
2022/02/19 01:51:17;;;;;;;;;;;;;;;20.06;33.31;100838.75;7284253;19;151836;-50
2022/02/19 01:53:44;;;;;;;;;;;;;;;20.04;33.55;100837.38;7281616;19;152873;-51
2022/02/19 01:56:11;;;;;;;;;;;;;;;20.01;33.56;100836.03;7277250;19;153080;-50
2022/02/19 01:58:39;;;;;;;;;;;;;;;19.99;33.87;100841.94;7284463;19;151894;-51
2022/02/19 02:01:06;;;;;;;;;;;;;;;19.98;33.81;100840.31;7284226;19;153544;-50
2022/02/19 02:03:33;;;;;;;;;;;;;;;19.94;33.89;100844.03;7289071;19;155230;-51
2022/02/19 02:06:00;;;;;;;;;;;;;;;19.92;33.99;100844.34;7284422;19;152914;-51
2022/02/19 02:08:27;;;;;;;;;;;;;;;19.92;34.27;100869.56;7280609;19;152643;-50
2022/02/19 02:10:54;;;;;;;;;;;;;;;19.90;34.50;100873.81;7280181;19;151988;-50
2022/02/19 02:13:21;;;;;;;;;;;;;;;19.88;34.18;100882.53;7285193;19;152856;-50
2022/02/19 02:15:50;;;;;;;;;;;;;;;19.84;34.31;100892.69;7282415;19;152208;-51
2022/02/19 02:18:17;;;;;;;;;;;;;;;19.83;34.76;100893.84;7282517;19;152149;-50
2022/02/19 02:20:44;;;;;;;;;;;;;;;19.83;34.69;100898.59;7284336;19;153487;-50
2022/02/19 02:23:14;;;;;;;;;;;;;;;19.78;34.80;100891.09;7280676;19;153988;-50
2022/02/19 02:25:41;;;;;;;;;;;;;;;19.76;34.74;100886.97;7291889;19;151943;-50
2022/02/19 02:28:10;;;;;;;;;;;;;;;19.76;35.14;100898.97;7278259;19;153664;-50
2022/02/19 02:30:37;;;;;;;;;;;;;;;19.71;35.00;100903.84;7284335;19;152007;-50
2022/02/19 02:33:08;;;;;;;;;;;;;;;19.69;34.93;100901.34;7283200;19;152036;-50
2022/02/19 02:35:35;;;;;;;;;;;;;;;19.66;35.39;100893.56;7280287;19;154741;-50
2022/02/19 02:38:02;;;;;;;;;;;;;;;19.64;35.51;100901.41;7283756;19;152336;-50
2022/02/19 02:40:30;;;;;;;;;;;;;;;19.61;35.70;100912.41;7282777;19;153545;-50
2022/02/19 02:42:56;;;;;;;;;;;;;;;19.58;35.36;100911.03;7281655;19;153918;-50
2022/02/19 02:45:24;;;;;;;;;;;;;;;19.56;35.74;100921.72;7279968;19;152294;-50
2022/02/19 02:48:11;;;;;;;;;;;;;;;19.53;35.94;100916.75;7289153;19;155596;-49
2022/02/19 02:50:37;;;;;;;;;;;;;;;19.50;35.75;100922.94;7281139;19;152019;-50
2022/02/19 02:53:26;;;;;;;;;;;;;;;19.50;35.98;100917.31;7282921;19;154170;-49
2022/02/19 02:55:53;;;;;;;;;;;;;;;19.46;35.79;100930.28;7276044;19;153797;-50
2022/02/19 02:58:21;;;;;;;;;;;;;;;19.45;36.23;100929.44;7281650;19;151869;-50
2022/02/19 03:00:47;;;;;;;;;;;;;;;19.43;36.35;100940.13;7280935;19;152853;-50
2022/02/19 03:03:14;;;;;;;;;;;;;;;19.40;36.38;100932.28;7278250;19;154819;-50
2022/02/19 03:05:41;;;;;;;;;;;;;;;19.37;36.09;100940.44;7282062;19;152197;-51
2022/02/19 03:08:08;;;;;;;;;;;;;;;19.35;36.60;100942.75;7283344;19;152628;-50
2022/02/19 03:10:36;;;;;;;;;;;;;;;19.34;36.23;100949.47;7288245;19;154265;-50
2022/02/19 03:13:02;;;;;;;;;;;;;;;19.30;36.33;100940.84;7281974;19;153513;-49
2022/02/19 03:15:29;;;;;;;;;;;;;;;19.29;36.48;100943.94;7282095;19;153430;-50
2022/02/19 03:17:56;;;;;;;;;;;;;;;19.24;36.29;100944.84;7282456;19;152180;-50
2022/02/19 03:20:24;;;;;;;;;;;;;;;19.21;36.62;100944.59;7280868;19;153386;-50
2022/02/19 03:22:50;;;;;;;;;;;;;;;19.18;36.72;100948.81;7279858;19;154046;-50
2022/02/19 03:25:18;;;;;;;;;;;;;;;19.16;36.48;100947.47;7282517;19;151999;-50
2022/02/19 03:27:44;;;;;;;;;;;;;;;19.13;36.52;100939.63;7279952;19;153776;-50
2022/02/19 03:30:12;;;;;;;;;;;;;;;19.12;36.35;100957.59;7275585;19;154819;-51
2022/02/19 03:32:39;;;;;;;;;;;;;;;19.08;36.67;100960.97;7288405;19;152014;-50
2022/02/19 03:35:06;;;;;;;;;;;;;;;19.07;36.82;100964.09;7279759;19;153838;-50
2022/02/19 03:37:34;;;;;;;;;;;;;;;19.02;36.79;100965.00;7280600;19;152490;-50
2022/02/19 03:40:06;;;;;;;;;;;;;;;19.01;36.34;100954.91;7280663;19;153243;-50
2022/02/19 03:42:33;;;;;;;;;;;;;;;19.04;36.55;100953.47;7278955;19;153456;-50
2022/02/19 03:45:00;;;;;;;;;;;;;;;19.02;36.63;100966.94;7281303;19;151778;-49
2022/02/19 03:47:27;;;;;;;;;;;;;;;18.97;36.63;100965.03;7281044;19;151823;-50
2022/02/19 03:49:54;;;;;;;;;;;;;;;18.94;36.84;100971.22;7278309;19;152054;-51
2022/02/19 03:52:21;;;;;;;;;;;;;;;18.92;36.93;100965.09;7289049;19;151779;-50
2022/02/19 03:54:48;;;;;;;;;;;;;;;18.85;36.68;100969.41;7278542;19;153546;-50
2022/02/19 03:57:15;;;;;;;;;;;;;;;18.83;36.87;100975.28;7276178;19;152470;-49
2022/02/19 03:59:42;;;;;;;;;;;;;;;18.81;36.92;100980.31;7286110;19;153828;-49
2022/02/19 04:02:09;;;;;;;;;;;;;;;18.77;36.94;100981.22;7286400;19;154777;-50
2022/02/19 04:04:36;;;;;;;;;;;;;;;18.74;37.18;100982.66;7288293;19;151851;-50
2022/02/19 04:07:04;;;;;;;;;;;;;;;18.72;36.94;100986.84;7287975;19;152979;-50
2022/02/19 04:09:31;;;;;;;;;;;;;;;18.69;37.11;100982.69;7284015;19;153413;-51
2022/02/19 04:11:57;;;;;;;;;;;;;;;18.66;37.47;100980.50;7285041;19;152052;-51
2022/02/19 04:14:24;;;;;;;;;;;;;;;18.63;37.63;100986.66;7293186;19;152086;-50
2022/02/19 04:16:51;;;;;;;;;;;;;;;18.60;38.09;100998.47;7285511;19;151820;-50
2022/02/19 04:19:18;;;;;;;;;;;;;;;18.57;37.59;100977.50;7287821;19;152739;-50
2022/02/19 04:21:44;;;;;;;;;;;;;;;18.57;38.21;100994.31;7286620;19;153508;-50
2022/02/19 04:24:11;;;;;;;;;;;;;;;18.56;38.28;100994.59;7287421;19;151980;-49
2022/02/19 04:26:38;;;;;;;;;;;;;;;18.53;38.18;100996.00;7285107;19;153289;-49
2022/02/19 04:29:05;;;;;;;;;;;;;;;18.50;38.02;100995.72;7285124;19;153874;-52
2022/02/19 04:31:32;;;;;;;;;;;;;;;18.50;38.05;101006.91;7284297;19;153205;-50
2022/02/19 04:33:58;;;;;;;;;;;;;;;18.47;38.06;101008.34;7286230;19;152796;-51
2022/02/19 04:36:25;;;;;;;;;;;;;;;18.46;38.69;101005.81;7292914;19;152472;-50
2022/02/19 04:38:52;;;;;;;;;;;;;;;18.44;38.41;101016.50;7286473;19;153350;-50
2022/02/19 04:41:19;;;;;;;;;;;;;;;18.42;38.35;101015.94;7285738;19;153803;-50
2022/02/19 04:43:46;;;;;;;;;;;;;;;18.39;38.51;101013.72;7286228;19;151882;-50
2022/02/19 04:46:12;;;;;;;;;;;;;;;18.37;38.74;101016.81;7284580;19;152306;-50
2022/02/19 04:48:39;;;;;;;;;;;;;;;18.36;38.33;101017.94;7285874;19;153414;-51
2022/02/19 04:51:06;;;;;;;;;;;;;;;18.35;38.62;101016.25;7284277;19;151859;-51
2022/02/19 04:53:33;;;;;;;;;;;;;;;18.34;38.92;101023.00;7286291;19;152875;-51
2022/02/19 04:56:00;;;;;;;;;;;;;;;18.32;38.63;101027.19;7283373;19;152710;-50
2022/02/19 04:58:27;;;;;;;;;;;;;;;18.31;38.74;101034.75;7287735;19;152177;-50
2022/02/19 05:00:54;;;;;;;;;;;;;;;18.30;39.02;101026.69;7284403;19;155263;-50
2022/02/19 05:03:21;;;;;;;;;;;;;;;18.29;38.95;101030.59;7285767;19;152111;-50
2022/02/19 05:05:48;;;;;;;;;;;;;;;18.26;38.83;101031.19;7286051;19;154067;-50
2022/02/19 05:08:15;;;;;;;;;;;;;;;18.22;39.28;101034.53;7281907;19;154446;-52
2022/02/19 05:10:42;;;;;;;;;;;;;;;18.20;38.99;101028.41;7283664;19;152221;-51
2022/02/19 05:13:08;;;;;;;;;;;;;;;18.19;39.13;101031.50;7285714;19;151735;-50
2022/02/19 05:15:35;;;;;;;;;;;;;;;18.15;39.05;101036.84;7284677;19;153821;-51
2022/02/19 05:18:05;;;;;;;;;;;;;;;18.12;39.21;101033.78;7285510;19;151835;-50
2022/02/19 05:20:32;;;;;;;;;;;;;;;18.11;39.22;101030.16;7291911;19;153961;-50
2022/02/19 05:22:59;;;;;;;;;;;;;;;18.10;39.16;101030.44;7285052;19;151675;-50
2022/02/19 05:25:25;;;;;;;;;;;;;;;18.09;39.09;101035.19;7283658;19;152821;-50
2022/02/19 05:27:52;;;;;;;;;;;;;;;18.07;39.17;101028.25;7284749;19;154484;-50
2022/02/19 05:30:19;;;;;;;;;;;;;;;18.05;39.14;101031.31;7281842;19;151988;-50
2022/02/19 05:32:46;;;;;;;;;;;;;;;18.03;39.21;101036.38;7285455;19;153480;-50
2022/02/19 05:35:13;;;;;;;;;;;;;;;18.03;39.68;101039.16;7283803;19;153269;-51
2022/02/19 05:37:40;;;;;;;;;;;;;;;17.99;39.66;101042.84;7283640;19;151744;-50
2022/02/19 05:40:07;;;;;;;;;;;;;;;17.98;39.78;101041.16;7284455;19;153643;-50
2022/02/19 05:42:34;;;;;;;;;;;;;;;17.97;39.79;101048.69;7291384;19;153396;-49
2022/02/19 05:45:01;;;;;;;;;;;;;;;17.96;39.92;101041.44;7283259;19;154335;-50
2022/02/19 05:47:28;;;;;;;;;;;;;;;17.94;39.50;101040.06;7283142;19;153383;-49
2022/02/19 05:49:55;;;;;;;;;;;;;;;17.91;39.86;101035.88;7283784;19;151878;-51
2022/02/19 05:52:22;;;;;;;;;;;;;;;17.89;39.82;101029.75;7285023;19;152765;-50
2022/02/19 05:54:52;;;;;;;;;;;;;;;17.89;39.98;101034.50;7283348;19;153546;-51
2022/02/19 05:57:20;;;;;;;;;;;;;;;17.86;39.76;101030.31;7280827;19;151820;-50
2022/02/19 05:59:47;;;;;;;;;;;;;;;17.85;40.18;101031.47;7281390;19;154413;-50
2022/02/19 06:02:14;;;;;;;;;;;;;;;17.85;40.21;101034.25;7290549;19;153508;-51
2022/02/19 06:04:41;;;;;;;;;;;;;;;17.82;39.95;101031.16;7283882;19;153391;-50
2022/02/19 06:07:07;;;;;;;;;;;;;;;17.81;40.24;101021.16;7283388;19;153982;-50
2022/02/19 06:09:34;;;;;;;;;;;;;;;17.79;39.97;101021.41;7284080;19;152110;-50
2022/02/19 06:12:02;;;;;;;;;;;;;;;17.75;40.20;101023.97;7280577;19;151887;-49
2022/02/19 06:14:28;;;;;;;;;;;;;;;17.78;39.87;101016.94;7282874;19;153429;-50
2022/02/19 06:16:55;;;;;;;;;;;;;;;17.75;40.33;101023.13;7283651;19;151791;-50
2022/02/19 06:19:23;;;;;;;;;;;;;;;17.76;40.05;101033.19;7284049;19;154096;-50
2022/02/19 06:21:50;;;;;;;;;;;;;;;17.83;40.31;101016.91;7278805;19;154375;-51
2022/02/19 06:24:17;;;;;;;;;;;;;;;17.85;40.31;101028.66;7290451;19;152022;-50
2022/02/19 06:26:43;;;;;;;;;;;;;;;17.90;40.93;101020.22;7282593;19;153973;-50
2022/02/19 06:29:10;;;;;;;;;;;;;;;17.95;41.19;101017.41;7284082;19;152025;-51
2022/02/19 06:31:37;;;;;;;;;;;;;;;17.98;40.84;101022.44;7280823;19;153635;-50
2022/02/19 06:34:04;;;;;;;;;;;;;;;18.04;40.26;101023.19;7282965;19;154033;-50
2022/02/19 06:36:31;;;;;;;;;;;;;;;18.09;40.33;101024.00;7282918;19;151852;-51
2022/02/19 06:38:57;;;;;;;;;;;;;;;18.14;40.45;101021.19;7283185;19;153655;-49
2022/02/19 06:41:24;;;;;;;;;;;;;;;18.20;40.81;101031.22;7280398;19;154182;-50
2022/02/19 06:43:52;;;;;;;;;;;;;;;18.27;40.94;101032.81;7283412;19;152105;-50
2022/02/19 06:46:19;;;;;;;;;;;;;;;18.33;40.59;101023.28;7286602;19;153598;-50
2022/02/19 06:48:45;;;;;;;;;;;;;;;18.38;40.97;101032.47;7283025;19;151913;-50
2022/02/19 06:51:12;;;;;;;;;;;;;;;18.44;40.72;101036.06;7280903;19;153612;-50
2022/02/19 06:53:41;;;;;;;;;;;;;;;18.50;40.96;101046.91;7282090;19;153453;-50
2022/02/19 06:56:08;;;;;;;;;;;;;;;18.57;40.86;101043.81;7282198;19;151671;-51
2022/02/19 06:58:34;;;;;;;;;;;;;;;18.63;41.17;101031.44;7280578;19;153989;-50
2022/02/19 07:01:01;;;;;;;;;;;;;;;18.69;41.54;101030.28;7277308;19;153543;-50
2022/02/19 07:03:29;;;;;;;;;;;;;;;18.76;41.13;101030.75;7279103;19;151820;-50
2022/02/19 07:05:55;;;;;;;;;;;;;;;18.84;40.76;101041.34;7282911;19;152627;-50
2022/02/19 07:08:22;;;;;;;;;;;;;;;18.90;40.60;101031.75;7289001;19;154025;-50
2022/02/19 07:10:49;;;;;;;;;;;;;;;18.96;40.43;101026.94;7280617;19;153099;-52
2022/02/19 07:13:16;;;;;;;;;;;;;;;19.02;40.46;101026.59;7282210;19;153568;-49
2022/02/19 07:15:43;;;;;;;;;;;;;;;19.07;40.46;101023.75;7281370;19;153414;-51
2022/02/19 07:18:10;;;;;;;;;;;;;;;19.15;40.23;101032.59;7283182;19;153183;-50
2022/02/19 07:20:37;;;;;;;;;;;;;;;19.20;39.98;101040.97;7281822;19;153906;-51
2022/02/19 07:23:04;;;;;;;;;;;;;;;19.26;40.17;101048.19;7280464;19;151963;-51
2022/02/19 07:25:31;;;;;;;;;;;;;;;19.31;40.25;101050.91;7282622;19;153394;-51
2022/02/19 07:27:59;;;;;;;;;;;;;;;19.37;40.52;101058.13;7279756;19;153907;-49
2022/02/19 07:30:25;;;;;;;;;;;;;;;19.42;40.14;101060.88;7287683;19;151825;-51
2022/02/19 07:32:52;;;;;;;;;;;;;;;19.45;40.11;101063.94;7282646;19;153217;-50
2022/02/19 07:35:20;;;;;;;;;;;;;;;19.49;40.18;101065.00;7289650;19;152072;-50
2022/02/19 07:37:47;;;;;;;;;;;;;;;19.53;40.42;101054.88;7289320;19;153335;-50
2022/02/19 07:40:14;;;;;;;;;;;;;;;19.59;39.88;101058.44;7287949;19;153566;-49
2022/02/19 07:42:41;;;;;;;;;;;;;;;19.64;40.04;101049.97;7286911;19;152249;-51
2022/02/19 07:45:08;;;;;;;;;;;;;;;19.68;39.55;101045.44;7289465;19;153165;-50
2022/02/19 07:47:35;;;;;;;;;;;;;;;19.73;39.54;101047.34;7288461;19;153766;-51
2022/02/19 08:00:29;;;;;;;;;;;;;;;19.93;40.56;101017.06;7282466;19;153799;-51
2022/02/19 08:02:56;;;;;;;;;;;;;;;19.99;39.57;101018.63;7284830;19;151793;-50
2022/02/19 08:05:23;;;;;;;;;;;;;;;20.04;39.48;101028.09;7288701;19;153605;-51
2022/02/19 08:07:54;;;;;;;;;;;;;;;20.07;39.42;101031.16;7287050;19;152320;-50
2022/02/19 08:10:21;;;;;;;;;;;;;;;20.10;39.18;101024.94;7287547;19;151889;-50
2022/02/19 08:12:48;;;;;;;;;;;;;;;20.13;39.04;101032.72;7294922;19;152692;-50
2022/02/19 08:15:15;;;;;;;;;;;;;;;20.14;39.01;101042.81;7288515;19;152148;-50
2022/02/19 08:17:42;;;;;;;;;;;;;;;20.16;38.89;101043.38;7288154;19;152795;-50
2022/02/19 08:20:09;;;;;;;;;;;;;;;20.18;38.67;101043.03;7286118;19;154077;-49
2022/02/19 08:22:36;;;;;;;;;;;;;;;20.19;38.38;101059.56;7286446;19;151561;-51
2022/02/19 08:25:03;;;;;;;;;;;;;;;20.20;38.41;101066.03;7285370;19;155699;-50
2022/02/19 08:27:34;;;;;;;;;;;;;;;20.20;38.45;101074.44;7286342;19;154706;-50
2022/02/19 08:30:02;;;;;;;;;;;;;;;20.20;38.05;101074.44;7287472;19;152486;-50
2022/02/19 08:32:29;;;;;;;;;;;;;;;20.19;37.97;101072.78;7285983;19;152898;-50
2022/02/19 08:34:57;;;;;;;;;;;;;;;20.19;38.03;101056.78;7293449;19;155268;-51
2022/02/19 08:37:25;;;;;;;;;;;;;;;20.18;37.96;101057.06;7286815;19;153446;-51
2022/02/19 08:39:52;;;;;;;;;;;;;;;20.16;37.79;101056.56;7285417;19;154320;-49
2022/02/19 08:42:19;;;;;;;;;;;;;;;20.15;38.03;101049.25;7287614;19;151966;-50
2022/02/19 08:44:46;;;;;;;;;;;;;;;20.14;37.60;101051.22;7286682;19;152828;-53
2022/02/19 08:47:13;;;;;;;;;;;;;;;20.11;37.63;101059.44;7283625;19;155522;-53
2022/02/19 08:49:40;;;;;;;;;;;;;;;20.10;38.08;101055.78;7287303;19;151655;-50
2022/02/19 08:52:07;;;;;;;;;;;;;;;20.10;38.24;101058.59;7284655;19;152258;-50
2022/02/19 08:54:35;;;;;;;;;;;;;;;20.08;37.91;101063.66;7284315;19;154260;-50
2022/02/19 08:57:02;;;;;;;;;;;;;;;20.07;38.05;101061.19;7290317;19;154461;-50
2022/02/19 08:59:29;;;;;;;;;;;;;;;20.02;38.02;101056.47;7286079;19;153625;-50
2022/02/19 09:01:58;;;;;;;;;;;;;;;20.00;37.82;101064.34;7282736;19;151885;-50
2022/02/19 09:04:25;;;;;;;;;;;;;;;19.98;37.76;101056.25;7287147;19;152790;-51
2022/02/19 09:06:52;;;;;;;;;;;;;;;19.96;37.86;101044.50;7285075;19;152262;-50
2022/02/19 09:09:19;;;;;;;;;;;;;;;19.94;38.14;101035.53;7285041;19;151975;-51
2022/02/19 09:11:46;;;;;;;;;;;;;;;19.92;38.13;101037.81;7283667;19;152631;-50
2022/02/19 09:14:13;;;;;;;;;;;;;;;19.90;37.84;101047.66;7283291;19;155710;-51
2022/02/19 09:16:40;;;;;;;;;;;;;;;19.85;37.93;101031.72;7286589;19;152087;-50
2022/02/19 09:19:07;;;;;;;;;;;;;;;19.84;38.21;101030.09;7292983;19;152795;-50
2022/02/19 09:21:36;;;;;;;;;;;;;;;19.82;37.86;101025.91;7286514;19;151836;-50
2022/02/19 09:24:03;;;;;;;;;;;;;;;19.81;38.01;101018.63;7285239;19;152905;-51
2022/02/19 09:26:30;;;;;;;;;;;;;;;19.77;38.06;101012.78;7285563;19;153520;-50
2022/02/19 09:28:57;;;;;;;;;;;;;;;19.74;38.08;101006.97;7285779;19;151765;-50
2022/02/19 09:31:24;;;;;;;;;;;;;;;19.71;38.24;101002.81;7282805;19;152796;-50
2022/02/19 09:33:51;;;;;;;;;;;;;;;19.67;38.01;100996.09;7285036;19;154980;-50
2022/02/19 09:36:18;;;;;;;;;;;;;;;19.65;38.39;100992.78;7285658;19;152423;-49
2022/02/19 09:38:47;;;;;;;;;;;;;;;19.62;38.44;100995.38;7283993;19;154735;-50
2022/02/19 09:41:14;;;;;;;;;;;;;;;19.60;38.59;100983.59;7291763;19;153642;-50
2022/02/19 09:43:41;;;;;;;;;;;;;;;19.57;38.38;100987.03;7283801;19;152506;-51
2022/02/19 09:46:09;;;;;;;;;;;;;;;19.56;38.52;100974.97;7283769;19;153972;-50
2022/02/19 09:48:37;;;;;;;;;;;;;;;19.55;38.72;100970.50;7284550;19;151756;-51
2022/02/19 09:51:05;;;;;;;;;;;;;;;19.50;38.67;100970.56;7284816;19;155270;-50
2022/02/19 09:53:33;;;;;;;;;;;;;;;19.48;39.08;100972.84;7282878;19;153572;-50
2022/02/19 09:56:00;;;;;;;;;;;;;;;19.47;38.98;100971.19;7281764;19;151925;-50
2022/02/19 09:58:28;;;;;;;;;;;;;;;19.43;38.91;100979.34;7286027;19;152816;-50
2022/02/19 10:00:55;;;;;;;;;;;;;;;19.43;38.68;100978.47;7283041;19;153413;-50
2022/02/19 10:03:22;;;;;;;;;;;;;;;19.39;39.03;100981.06;7288835;19;151965;-50
2022/02/19 10:05:50;;;;;;;;;;;;;;;19.38;38.91;100970.16;7282758;19;153911;-50
2022/02/19 10:08:17;;;;;;;;;;;;;;;19.36;38.79;100978.84;7283864;19;152097;-51
2022/02/19 10:10:47;;;;;;;;;;;;;;;19.32;38.84;100976.94;7282118;19;153437;-51
2022/02/19 10:13:24;;;;;;;;;;;;;;;19.25;39.03;100977.31;7282264;19;153615;-50
2022/02/19 10:15:51;;;;;;;;;;;;;;;19.21;38.80;100976.25;7285427;19;151941;-50
2022/02/19 10:18:28;;;;;;;;;;;;;;;19.21;39.03;100975.41;7284923;19;153527;-51
2022/02/19 10:21:04;;;;;;;;;;;;;;;19.14;38.82;100977.72;7283546;19;154103;-51
2022/02/19 10:23:32;;;;;;;;;;;;;;;19.13;38.94;100973.25;7290508;19;152054;-50
2022/02/19 10:26:00;;;;;;;;;;;;;;;19.09;39.05;100962.66;7281548;19;153114;-49
2022/02/19 10:28:27;;;;;;;;;;;;;;;19.07;38.85;100952.91;7282812;19;151977;-51
2022/02/19 10:30:54;;;;;;;;;;;;;;;19.04;38.91;100945.91;7284030;19;153314;-50
2022/02/19 10:33:25;;;;;;;;;;;;;;;19.02;38.91;100927.75;7281533;19;155590;-50
2022/02/19 10:35:52;;;;;;;;;;;;;;;19.00;38.77;100930.84;7282669;19;152061;-50
2022/02/19 10:38:20;;;;;;;;;;;;;;;18.96;39.11;100909.34;7282308;19;154590;-50
2022/02/19 10:40:52;;;;;;;;;;;;;;;18.95;38.79;100902.06;7283171;19;154373;-51
2022/02/19 10:43:22;;;;;;;;;;;;;;;18.92;38.67;100905.47;7284142;19;152490;-50
2022/02/19 10:45:56;;;;;;;;;;;;;;;18.90;38.99;100900.16;7287784;19;153650;-48
2022/02/19 10:48:24;;;;;;;;;;;;;;;18.87;39.06;100902.72;7282797;19;152531;-49
2022/02/19 10:50:52;;;;;;;;;;;;;;;18.84;39.17;100892.97;7282765;19;152088;-49
2022/02/19 10:53:21;;;;;;;;;;;;;;;18.83;39.20;100885.69;7279741;19;153881;-49
2022/02/19 10:55:49;;;;;;;;;;;;;;;18.81;39.19;100887.13;7283462;19;151778;-50
2022/02/19 10:58:16;;;;;;;;;;;;;;;18.78;39.00;100874.56;7283527;19;155369;-50
2022/02/19 11:00:44;;;;;;;;;;;;;;;18.74;39.17;100865.09;7281413;19;154560;-49
2022/02/19 11:03:12;;;;;;;;;;;;;;;18.70;39.21;100847.25;7278754;19;151794;-49
2022/02/19 11:05:39;;;;;;;;;;;;;;;18.69;39.19;100845.56;7279997;19;153727;-49
2022/02/19 11:08:07;;;;;;;;;;;;;;;18.64;39.04;100846.47;7289552;19;152962;-49
2022/02/19 11:10:34;;;;;;;;;;;;;;;18.64;39.17;100840.03;7282341;19;153521;-49
2022/02/19 11:13:01;;;;;;;;;;;;;;;18.60;39.45;100833.38;7279216;19;154126;-49
2022/02/19 11:15:29;;;;;;;;;;;;;;;18.57;39.32;100829.22;7281379;19;151652;-49
2022/02/19 11:17:56;;;;;;;;;;;;;;;18.57;39.70;100811.59;7281711;19;153278;-49
2022/02/19 11:20:24;;;;;;;;;;;;;;;18.55;39.90;100786.69;7280383;19;153806;-50
2022/02/19 11:22:54;;;;;;;;;;;;;;;18.52;39.85;100778.03;7283373;19;152168;-49
2022/02/19 11:25:24;;;;;;;;;;;;;;;18.49;39.66;100776.66;7283297;19;152894;-50
2022/02/19 11:27:53;;;;;;;;;;;;;;;18.54;40.29;100761.81;7281671;19;154340;-50
2022/02/19 11:30:23;;;;;;;;;;;;;;;18.53;40.39;100749.78;7290620;19;151925;-49
2022/02/19 11:32:52;;;;;;;;;;;;;;;18.51;40.32;100731.59;7279277;19;153899;-50
2022/02/19 11:35:29;;;;;;;;;;;;;;;18.54;40.42;100726.28;7283229;19;152235;-49
2022/02/19 11:37:56;;;;;;;;;;;;;;;18.42;39.86;100723.06;7279760;19;154147;-50
2022/02/19 11:40:25;;;;;;;;;;;;;;;18.31;39.56;100717.88;7276531;19;154478;-49
2022/02/19 11:42:53;;;;;;;;;;;;;;;18.23;39.60;100697.84;7282585;19;151886;-50
2022/02/19 11:45:22;;;;;;;;;;;;;;;18.30;39.08;100682.66;7280256;19;152035;-50
2022/02/19 11:47:50;;;;;;;;;;;;;;;18.30;39.58;100672.31;7280500;19;152983;-48
2022/02/19 11:50:26;;;;;;;;;;;;;;;18.30;39.55;100661.13;7280541;19;152373;-49
2022/02/19 11:53:03;;;;;;;;;;;;;;;18.35;39.39;100663.03;7287263;19;152886;-50
2022/02/19 11:55:30;;;;;;;;;;;;;;;18.38;39.16;100668.84;7280722;19;151997;-50
2022/02/19 11:58:01;;;;;;;;;;;;;;;18.22;38.00;100679.41;7280755;19;152861;-53
2022/02/19 12:00:38;;;;;;;;;;;;;;;18.25;37.94;100689.16;7278342;19;152497;-51
2022/02/19 12:03:14;;;;;;;;;;;;;;;18.28;38.49;100682.97;7280876;19;151881;-52
2022/02/19 12:06:00;;;;;;;;;;;;;;;18.31;38.62;100699.13;7278547;19;152796;-53
2022/02/19 12:08:27;;;;;;;;;;;;;;;18.31;38.51;100685.16;7279783;19;153483;-50
2022/02/19 12:11:04;;;;;;;;;;;;;;;18.36;38.56;100661.88;7279993;19;151680;-50
2022/02/19 12:13:42;;;;;;;;;;;;;;;18.40;39.03;100651.75;7279758;19;151975;-54
2022/02/19 12:16:19;;;;;;;;;;;;;;;18.46;39.02;100643.00;7282896;19;151964;-54
2022/02/19 12:18:46;;;;;;;;;;;;;;;18.52;38.90;100612.97;7283978;19;153399;-51
2022/02/19 12:21:23;;;;;;;;;;;;;;;18.56;38.87;100623.28;7284265;19;153545;-51
2022/02/19 12:24:08;;;;;;;;;;;;;;;18.59;39.08;100582.69;7286578;19;151798;-51
2022/02/19 12:26:44;;;;;;;;;;;;;;;18.65;39.01;100581.47;7288255;19;152838;-51
2022/02/19 12:29:19;;;;;;;;;;;;;;;18.66;39.12;100580.34;7287244;19;153354;-53
2022/02/19 12:32:00;;;;;;;;;;;;;;;18.70;38.95;100564.59;7287184;19;151781;-50
2022/02/19 12:34:28;;;;;;;;;;;;;;;18.73;38.85;100544.38;7284288;19;155043;-52
2022/02/19 12:36:56;;;;;;;;;;;;;;;18.79;38.67;100531.97;7291881;19;156148;-51
2022/02/19 12:39:23;;;;;;;;;;;;;;;18.82;38.88;100514.56;7287848;19;153487;-51
2022/02/19 12:41:54;;;;;;;;;;;;;;;18.85;38.78;100513.94;7286445;19;152478;-50